Airfield :
LOGIN :

Register | Disclaimer

   EN    FR    IT 

 










Legend :    VFR   Marginal VFR   IFR   Intensive IFR   Very Intensive IFR
Visi :
Ceiling :
>= 8 km
>= 3000ft
5 to 8 km
1000 to 3000 ft
1500m to 5 km
500 to 1000 ft
800 to 1500m
200 to 500 ft
< 800m
< 200 ft
Symbols :   Thunderstorms  Fog  Heavy snow  Heavy precipitations  Wind > 20 kt
SIGMETs :     Misc.  Thunderstorms  Icing  Turbulence  Mountain Waves  Volcanic Ashes







- Airport Elevation : 1411 ft
- IATA code : GVA


LSGG - Genève Cointrin

CURRENT METAR :
  • 300050Z AUTO VRB02KT 9999 FEW085 18/13 Q1017 NOSIG

EXPIRED METARs :
  • 300020Z AUTO VRB01KT 9999 FEW085 BKN110 19/13 Q1017 NOSIG
  • 292350Z AUTO VRB02KT 9999 BKN095 19/14 Q1017 NOSIG
  • 292320Z AUTO 35003KT 9999 FEW090 OVC100 20/14 Q1017 NOSIG
  • 292250Z AUTO 02004KT CAVOK 20/14 Q1017 NOSIG
  • 292220Z AUTO 35003KT 310V010 CAVOK 20/13 Q1017 NOSIG

TAF TAF LSGG
Valid from the 30 at 00:00 until the 31 at 06:00 UTC


292325Z 3000/3106 23006KT CAVOK TX28/3015Z TN16/3004Z TN15/3104Z
BECMG 3008/3010 9999 FEW045
BECMG 3010/3012 24010KT FEW050TCU
PROB40
TEMPO 3014/3020 TS FEW050CB
BECMG 3020/3022 VRB03KT CAVOK
ATIS : +41 22 417 40 81
No reported NOTAMs for that airfield.



MET'MAP, your aeronautical weather chart ! - Copyright ORBIFLY December 2007 - Disclaimer

ORBIFLY MET'MAP TEAM :

Programming & Development : Alexandra Zaïnal
Concept & Development : Baudouin d'Aumeries
Co-Development & Prog : Marc-Olivier Méhu
Technical & hardware support : Manuel Goepfert

Contact : metmap@orbifly.com




SOURCES & CREDITS :

   NOAA